Time;durP1;ratioP1;P1;durP2;ratioP2;P2;SDS_P1;SDS_P2;PMS_P1;PMS_P2;Temp;Humidity;BMP_temperature;BMP_pressure;BME280_temperature;BME280_humidity;BME280_pressure;Samples;Min_cycle;Max_cycle;Signal;HPM_P1;HPM_P2
2022/01/13 00:00:54;;;;;;;0.00;0.00;;;;;;;-4.30;100.00;100852.75;5094635;28;20205;-59
2022/01/13 00:03:21;;;;;;;0.00;0.00;;;;;;;-4.26;100.00;100856.13;5081617;28;20305;-58
2022/01/13 00:05:49;;;;;;;0.00;0.00;;;;;;;-4.16;100.00;100849.31;5068794;28;20220;-58
2022/01/13 00:08:16;;;;;;;0.00;0.00;;;;;;;-4.26;100.00;100845.94;5074551;28;20577;-57
2022/01/13 00:10:42;;;;;;;0.00;0.00;;;;;;;-4.33;100.00;100846.78;5073792;28;20286;-58
2022/01/13 00:13:13;;;;;;;0.00;0.00;;;;;;;-4.35;100.00;100849.34;5065731;28;20219;-58
2022/01/13 00:15:45;;;;;;;0.00;0.00;;;;;;;-4.21;100.00;100866.31;5045590;28;20224;-57
2022/01/13 00:18:14;;;;;;;0.07;0.07;;;;;;;-4.27;100.00;100876.56;5063342;28;20275;-58
2022/01/13 00:21:13;;;;;;;0.00;0.00;;;;;;;-4.21;100.00;100872.28;5062385;28;20664;-57
2022/01/13 00:23:46;;;;;;;0.00;0.00;;;;;;;-4.24;100.00;100867.19;5064563;28;20216;-57
2022/01/13 00:26:19;;;;;;;0.00;0.00;;;;;;;-4.20;100.00;100879.09;5068237;28;20222;-58
2022/01/13 00:28:49;;;;;;;0.00;0.00;;;;;;;-4.28;100.00;100885.88;5073265;28;20237;-58
2022/01/13 00:31:18;;;;;;;0.00;0.00;;;;;;;-4.35;100.00;100877.41;5068682;28;20212;-57
2022/01/13 00:33:46;;;;;;;0.00;0.00;;;;;;;-4.32;100.00;100886.75;5061920;28;20215;-58
2022/01/13 00:36:13;;;;;;;0.00;0.00;;;;;;;-4.36;100.00;100885.91;5060268;28;20221;-57
2022/01/13 00:38:41;;;;;;;0.00;0.00;;;;;;;-4.37;100.00;100891.84;5064302;28;20585;-58
2022/01/13 00:41:08;;;;;;;0.07;0.07;;;;;;;-4.37;100.00;100891.00;5062090;28;20201;-57
2022/01/13 00:43:39;;;;;;;0.00;0.00;;;;;;;-4.37;100.00;100902.06;5061538;28;20290;-57
2022/01/13 00:46:06;;;;;;;0.00;0.00;;;;;;;-4.29;100.00;100896.94;5060997;28;20217;-58
2022/01/13 00:48:33;;;;;;;0.00;0.00;;;;;;;-4.30;100.00;100896.09;5042240;28;20247;-58
2022/01/13 00:51:00;;;;;;;0.00;0.00;;;;;;;-4.32;100.00;100887.59;5059002;28;20729;-55
2022/01/13 00:53:27;;;;;;;0.00;0.00;;;;;;;-4.28;100.00;100890.16;5062494;28;20214;-56
2022/01/13 00:56:01;;;;;;;0.00;0.00;;;;;;;-4.28;100.00;100888.44;5059312;28;20248;-58
2022/01/13 00:58:29;;;;;;;0.00;0.00;;;;;;;-4.27;100.00;100902.06;5060124;28;20296;-56
2022/01/13 01:00:57;;;;;;;0.00;0.00;;;;;;;-4.26;100.00;100896.09;5058397;28;20213;-57
2022/01/13 01:03:24;;;;;;;0.00;0.00;;;;;;;-4.23;100.00;100898.63;5066214;28;20208;-58
2022/01/13 01:05:51;;;;;;;0.00;0.00;;;;;;;-4.24;100.00;100912.25;5068741;28;20294;-58
2022/01/13 01:08:19;;;;;;;0.00;0.00;;;;;;;-4.30;100.00;100911.41;5064557;28;20232;-57
2022/01/13 01:10:48;;;;;;;0.00;0.00;;;;;;;-4.36;100.00;100906.31;5062254;28;20206;-57
2022/01/13 01:13:21;;;;;;;0.00;0.00;;;;;;;-4.37;100.00;100908.84;5058722;28;20223;-58
2022/01/13 01:15:52;;;;;;;0.00;0.00;;;;;;;-4.33;100.00;100908.00;5063324;28;20312;-58
2022/01/13 01:18:29;;;;;;;0.00;0.00;;;;;;;-4.35;100.00;100910.56;5071720;28;20274;-57
2022/01/13 01:21:18;;;;;;;0.00;0.00;;;;;;;-4.39;100.00;100911.41;5072476;28;20205;-58
2022/01/13 01:24:09;;;;;;;0.00;0.00;;;;;;;-4.33;100.00;100916.50;5072768;28;20284;-58
2022/01/13 01:26:41;;;;;;;0.00;0.00;;;;;;;-4.28;100.00;100920.75;5072009;28;20239;-56
2022/01/13 01:29:18;;;;;;;0.00;0.00;;;;;;;-4.38;100.00;100919.88;5071646;28;20353;-57
2022/01/13 01:31:48;;;;;;;0.00;0.00;;;;;;;-4.36;100.00;100924.16;5072291;28;20770;-56
2022/01/13 01:34:26;;;;;;;0.00;0.00;;;;;;;-4.30;100.00;100924.16;5071369;28;20230;-55
2022/01/13 01:36:54;;;;;;;0.00;0.00;;;;;;;-4.35;100.00;100927.53;5072569;28;20214;-56
2022/01/13 01:39:22;;;;;;;0.00;0.00;;;;;;;-4.40;100.00;100922.44;5071875;28;20213;-57
2022/01/13 01:41:50;;;;;;;0.10;0.10;;;;;;;-4.33;100.00;100923.28;5071735;28;20295;-57
2022/01/13 01:44:21;;;;;;;0.07;0.07;;;;;;;-4.37;100.00;100924.13;5071385;28;20295;-56
2022/01/13 01:46:48;;;;;;;0.00;0.00;;;;;;;-4.39;100.00;100913.09;5072026;28;20220;-55
2022/01/13 01:49:18;;;;;;;0.00;0.00;;;;;;;-4.31;100.00;100914.81;5060230;28;20862;-57
2022/01/13 01:51:46;;;;;;;0.00;0.00;;;;;;;-4.35;100.00;100908.00;5063365;28;20288;-56
2022/01/13 01:54:14;;;;;;;0.00;0.00;;;;;;;-4.35;100.00;100904.59;5070782;28;20724;-56
2022/01/13 01:56:41;;;;;;;0.00;0.00;;;;;;;-4.33;100.00;100903.75;5072192;28;20239;-56
2022/01/13 01:59:11;;;;;;;0.00;0.00;;;;;;;-4.34;100.00;100896.97;5071763;28;20205;-57
2022/01/13 02:01:40;;;;;;;0.00;0.00;;;;;;;-4.35;100.00;100896.94;5071443;28;20203;-57
2022/01/13 02:04:07;;;;;;;0.00;0.00;;;;;;;-4.36;100.00;100895.25;5071551;28;20288;-55
2022/01/13 02:06:35;;;;;;;0.00;0.00;;;;;;;-4.40;100.00;100899.50;5071138;28;20327;-57
2022/01/13 02:09:02;;;;;;;0.10;0.10;;;;;;;-4.39;100.00;100890.13;5069175;28;20576;-56
2022/01/13 02:11:30;;;;;;;0.00;0.00;;;;;;;-4.42;100.00;100893.56;5060591;28;20613;-57
2022/01/13 02:14:09;;;;;;;0.00;0.00;;;;;;;-4.49;100.00;100881.66;5057235;28;20557;-58
2022/01/13 02:16:44;;;;;;;0.03;0.03;;;;;;;-4.40;100.00;100875.69;5054066;28;20260;-58
2022/01/13 02:19:12;;;;;;;0.10;0.10;;;;;;;-4.32;100.00;100879.09;5070566;28;20250;-58
2022/01/13 02:21:40;;;;;;;0.00;0.00;;;;;;;-4.30;100.00;100874.84;5070580;28;20228;-57
2022/01/13 02:24:07;;;;;;;0.00;0.00;;;;;;;-4.35;100.00;100879.97;5070352;28;20834;-57
2022/01/13 02:26:34;;;;;;;0.00;0.00;;;;;;;-4.34;100.00;100873.13;5070025;28;20220;-58
2022/01/13 02:29:01;;;;;;;0.00;0.00;;;;;;;-4.35;100.00;100869.75;5070115;28;20679;-57
2022/01/13 02:31:28;;;;;;;0.00;0.00;;;;;;;-4.35;100.00;100874.84;5070176;28;20239;-56
2022/01/13 02:33:55;;;;;;;0.10;0.10;;;;;;;-4.37;100.00;100875.69;5069846;28;20220;-57
2022/01/13 02:36:23;;;;;;;0.00;0.00;;;;;;;-4.44;100.00;100869.75;5070130;28;20313;-59
2022/01/13 02:38:54;;;;;;;0.00;0.00;;;;;;;-4.45;100.00;100860.41;5070515;28;20570;-58
2022/01/13 02:41:22;;;;;;;0.00;0.00;;;;;;;-4.49;100.00;100863.81;5070308;28;20652;-57
2022/01/13 02:43:50;;;;;;;0.10;0.10;;;;;;;-4.50;100.00;100869.75;5070213;28;20214;-57
2022/01/13 02:46:32;;;;;;;0.00;0.00;;;;;;;-4.56;100.00;100864.66;5069366;28;20339;-56
2022/01/13 02:49:01;;;;;;;0.00;0.00;;;;;;;-4.49;100.00;100871.44;5069692;28;20201;-57
2022/01/13 02:51:27;;;;;;;0.00;0.00;;;;;;;-4.45;100.00;100865.50;5053779;28;20207;-56
2022/01/13 02:53:55;;;;;;;0.00;0.00;;;;;;;-4.41;100.00;100863.78;5068714;28;20208;-57
2022/01/13 02:56:22;;;;;;;0.10;0.10;;;;;;;-4.48;100.00;100868.88;5069550;28;20820;-57
2022/01/13 02:58:49;;;;;;;0.00;0.00;;;;;;;-4.45;100.00;100875.72;5070137;28;20658;-56
2022/01/13 03:01:16;;;;;;;0.00;0.00;;;;;;;-4.45;100.00;100865.50;5069518;28;20292;-56
2022/01/13 03:03:44;;;;;;;0.00;0.00;;;;;;;-4.51;100.00;100873.16;5070013;28;20539;-57
2022/01/13 03:06:13;;;;;;;0.00;0.00;;;;;;;-4.52;100.00;100876.56;5069217;28;20252;-58
2022/01/13 03:08:43;;;;;;;0.00;0.00;;;;;;;-4.57;100.00;100889.28;5069383;28;20220;-57
2022/01/13 03:11:12;;;;;;;0.00;0.00;;;;;;;-4.54;100.00;100894.38;5069925;28;20246;-57
2022/01/13 03:13:39;;;;;;;0.00;0.00;;;;;;;-4.56;100.00;100890.16;5069620;28;20223;-57
2022/01/13 03:16:07;;;;;;;0.10;0.10;;;;;;;-4.56;100.00;100893.53;5068306;28;20305;-57
2022/01/13 03:18:34;;;;;;;0.00;0.00;;;;;;;-4.53;100.00;100896.06;5064917;28;20224;-57
2022/01/13 03:21:00;;;;;;;0.00;0.00;;;;;;;-4.53;100.00;100897.78;5068652;28;20299;-56
2022/01/13 03:23:27;;;;;;;0.00;0.00;;;;;;;-4.48;100.00;100896.09;5067252;28;20587;-56
2022/01/13 03:25:54;;;;;;;0.10;0.10;;;;;;;-4.56;100.00;100888.44;5043359;28;20326;-57
2022/01/13 03:28:30;;;;;;;0.00;0.00;;;;;;;-4.57;100.00;100878.25;5069348;28;20311;-55
2022/01/13 03:30:58;;;;;;;0.10;0.10;;;;;;;-4.66;100.00;100876.53;5069542;28;20217;-57
2022/01/13 03:33:24;;;;;;;0.00;0.00;;;;;;;-4.64;100.00;100862.09;5069536;28;20691;-56
2022/01/13 03:35:51;;;;;;;0.10;0.10;;;;;;;-4.67;100.00;100868.03;5068785;28;20210;-56
2022/01/13 03:38:18;;;;;;;0.10;0.10;;;;;;;-4.66;100.00;100849.34;5069927;28;20288;-57
2022/01/13 03:40:45;;;;;;;0.10;0.10;;;;;;;-4.64;100.00;100854.44;5069699;28;20266;-57
2022/01/13 03:43:11;;;;;;;0.00;0.00;;;;;;;-4.50;100.00;100857.00;5069626;28;20207;-58
2022/01/13 03:45:39;;;;;;;0.10;0.10;;;;;;;-4.54;100.00;100847.66;5068978;28;20217;-58
2022/01/13 03:48:07;;;;;;;0.00;0.00;;;;;;;-4.43;100.00;100840.88;5046738;28;20303;-58
2022/01/13 03:50:34;;;;;;;0.00;0.00;;;;;;;-4.47;100.00;100851.91;5063555;28;20564;-55
2022/01/13 03:53:50;;;;;;;0.10;0.10;;;;;;;-4.51;100.00;100847.66;5056244;28;20213;-56
2022/01/13 03:56:54;;;;;;;0.00;0.00;;;;;;;-4.57;100.00;100850.22;5069925;28;20285;-54
2022/01/13 04:00:02;;;;;;;0.00;0.00;;;;;;;-4.54;100.00;100857.84;5070140;28;20677;-57
2022/01/13 04:02:30;;;;;;;0.10;0.10;;;;;;;-4.53;100.00;100859.56;5069819;28;20309;-57
2022/01/13 04:04:57;;;;;;;0.00;0.00;;;;;;;-4.57;100.00;100857.84;5069737;28;20286;-56
2022/01/13 04:07:25;;;;;;;0.00;0.00;;;;;;;-4.64;100.00;100855.31;5069730;28;20719;-56
2022/01/13 04:10:26;;;;;;;0.00;0.00;;;;;;;-4.61;100.00;100862.94;5070045;28;20224;-57
2022/01/13 04:12:53;;;;;;;0.00;0.00;;;;;;;-4.55;100.00;100866.34;5069819;28;20760;-56
2022/01/13 04:15:23;;;;;;;0.10;0.10;;;;;;;-4.53;100.00;100872.31;5063511;28;20869;-55
2022/01/13 04:17:51;;;;;;;0.03;0.03;;;;;;;-4.60;100.00;100874.84;5063390;28;20218;-55
2022/01/13 04:20:18;;;;;;;0.00;0.00;;;;;;;-4.65;100.00;100885.88;5069792;28;20578;-56
2022/01/13 04:22:46;;;;;;;0.10;0.10;;;;;;;-4.68;100.00;100891.81;5070027;28;20214;-58
2022/01/13 04:25:14;;;;;;;0.00;0.00;;;;;;;-4.45;100.00;100906.28;5060854;28;20596;-55
2022/01/13 04:27:43;;;;;;;0.00;0.00;;;;;;;-4.54;100.00;100909.66;5054981;28;20228;-55
2022/01/13 04:32:53;;;;;;;0.00;0.00;;;;;;;-4.53;100.00;100903.72;5038118;28;20217;-56
2022/01/13 04:35:20;;;;;;;0.00;0.00;;;;;;;-4.37;100.00;100913.94;5071999;28;20220;-57
2022/01/13 04:37:47;;;;;;;0.00;0.00;;;;;;;-4.42;100.00;100905.44;5072498;28;20223;-55
2022/01/13 04:40:14;;;;;;;0.00;0.00;;;;;;;-4.52;100.00;100904.59;5072402;28;20213;-56
2022/01/13 04:42:43;;;;;;;0.10;0.10;;;;;;;-4.59;100.00;100898.63;5072372;28;20205;-57
2022/01/13 04:45:10;;;;;;;0.00;0.00;;;;;;;-4.66;100.00;100902.88;5067439;28;20347;-55
2022/01/13 04:47:38;;;;;;;0.00;0.00;;;;;;;-4.65;100.00;100902.03;5071410;28;20263;-58
2022/01/13 04:50:07;;;;;;;0.10;0.10;;;;;;;-4.73;100.00;100898.63;5067001;28;20566;-57
2022/01/13 04:52:33;;;;;;;0.10;0.10;;;;;;;-4.79;100.00;100901.16;5062060;28;20201;-57
2022/01/13 04:55:08;;;;;;;0.00;0.00;;;;;;;-4.80;100.00;100902.00;5064939;28;20217;-57
2022/01/13 04:57:35;;;;;;;0.10;0.10;;;;;;;-4.74;100.00;100887.56;5071413;28;20215;-58
2022/01/13 05:00:02;;;;;;;0.10;0.10;;;;;;;-4.75;100.00;100888.41;5072175;28;20221;-58
2022/01/13 05:02:28;;;;;;;0.00;0.00;;;;;;;-4.81;100.00;100887.56;5072094;28;20278;-58
2022/01/13 05:04:55;;;;;;;0.00;0.00;;;;;;;-4.84;100.00;100879.91;5068409;28;20218;-56
2022/01/13 05:07:23;;;;;;;0.10;0.10;;;;;;;-4.80;100.00;100879.06;5071092;28;20206;-58
2022/01/13 05:09:50;;;;;;;0.00;0.00;;;;;;;-4.72;100.00;100884.16;5070816;28;20204;-58
2022/01/13 05:12:17;;;;;;;0.10;0.10;;;;;;;-4.71;100.00;100884.19;5071555;28;20198;-57
2022/01/13 05:14:45;;;;;;;0.10;0.10;;;;;;;-4.72;100.00;100894.34;5067766;28;20378;-58
2022/01/13 05:17:33;;;;;;;0.10;0.10;;;;;;;-4.77;100.00;100894.34;5071042;28;20222;-58
2022/01/13 05:20:12;;;;;;;0.00;0.00;;;;;;;-4.82;100.00;100903.69;5066430;28;20213;-58
2022/01/13 05:22:40;;;;;;;0.00;0.00;;;;;;;-4.78;100.00;100905.41;5068631;28;20215;-57
2022/01/13 05:25:08;;;;;;;0.10;0.10;;;;;;;-4.74;100.00;100904.56;5070987;28;20223;-58
2022/01/13 05:27:35;;;;;;;0.00;0.00;;;;;;;-4.80;100.00;100904.53;5072051;28;20566;-57
2022/01/13 05:30:03;;;;;;;0.00;0.00;;;;;;;-4.76;100.00;100906.25;5071901;28;20205;-57
2022/01/13 05:32:30;;;;;;;0.10;0.10;;;;;;;-4.74;100.00;100900.28;5070472;28;20209;-58
2022/01/13 05:34:56;;;;;;;0.00;0.00;;;;;;;-4.73;100.00;100896.06;5066995;28;20697;-58
2022/01/13 05:37:23;;;;;;;0.10;0.10;;;;;;;-4.74;100.00;100896.91;5072031;28;20218;-57
2022/01/13 05:39:51;;;;;;;0.00;0.00;;;;;;;-4.75;100.00;100890.94;5079671;28;20199;-58
2022/01/13 05:42:18;;;;;;;0.00;0.00;;;;;;;-4.69;100.00;100899.44;5092312;28;20362;-57
2022/01/13 05:44:45;;;;;;;0.00;0.00;;;;;;;-4.70;100.00;100893.53;5073288;28;20696;-56
2022/01/13 05:47:13;;;;;;;0.00;0.00;;;;;;;-4.66;100.00;100892.69;5072881;28;20209;-55
2022/01/13 05:49:41;;;;;;;0.00;0.00;;;;;;;-4.61;100.00;100897.75;5071536;28;20802;-57
2022/01/13 05:52:08;;;;;;;0.00;0.00;;;;;;;-4.54;100.00;100898.63;5053210;28;20240;-58
2022/01/13 05:54:35;;;;;;;0.10;0.10;;;;;;;-4.58;100.00;100891.84;5054603;28;20214;-57
2022/01/13 05:57:03;;;;;;;0.10;0.10;;;;;;;-4.60;100.00;100899.47;5089271;28;20312;-58
2022/01/13 05:59:30;;;;;;;0.10;0.10;;;;;;;-4.65;100.00;100901.16;5090948;28;20575;-58
2022/01/13 06:01:58;;;;;;;0.00;0.00;;;;;;;-4.70;100.00;100900.31;5059480;28;20294;-58
2022/01/13 06:04:24;;;;;;;0.00;0.00;;;;;;;-4.65;100.00;100896.06;5066920;28;20208;-58
2022/01/13 06:06:51;;;;;;;0.03;0.03;;;;;;;-4.71;100.00;100906.25;5071698;28;20295;-58
2022/01/13 06:09:18;;;;;;;0.00;0.00;;;;;;;-4.70;100.00;100895.19;5070955;28;20768;-58
2022/01/13 06:11:55;;;;;;;0.00;0.00;;;;;;;-4.67;100.00;100896.06;5069804;28;20705;-58
2022/01/13 06:14:23;;;;;;;0.10;0.10;;;;;;;-4.65;100.00;100890.97;5057231;28;20220;-56
2022/01/13 06:16:50;;;;;;;0.10;0.10;;;;;;;-4.72;100.00;100897.75;5060557;28;20740;-58
2022/01/13 06:19:16;;;;;;;0.00;0.00;;;;;;;-4.60;100.00;100899.47;5051767;28;20283;-58
2022/01/13 06:21:43;;;;;;;0.00;0.00;;;;;;;-4.58;100.00;100900.31;5055846;28;20217;-58
2022/01/13 06:24:10;;;;;;;0.00;0.00;;;;;;;-4.63;100.00;100905.44;5059706;28;20203;-58
2022/01/13 06:26:37;;;;;;;0.00;0.00;;;;;;;-4.63;100.00;100905.44;5071347;28;20210;-58
2022/01/13 06:29:04;;;;;;;0.00;0.00;;;;;;;-4.68;100.00;100901.16;5070748;28;20232;-57
2022/01/13 06:31:32;;;;;;;0.00;0.00;;;;;;;-4.70;100.00;100896.06;5070557;28;20554;-58
2022/01/13 06:33:59;;;;;;;0.10;0.10;;;;;;;-4.66;100.00;100900.31;5064489;28;20206;-56
2022/01/13 06:36:26;;;;;;;0.00;0.00;;;;;;;-4.66;100.00;100902.88;5071879;28;20218;-57
2022/01/13 06:38:52;;;;;;;0.00;0.00;;;;;;;-4.69;100.00;100897.78;5047247;28;20212;-57
2022/01/13 06:41:20;;;;;;;0.00;0.00;;;;;;;-4.66;100.00;100899.47;5051266;28;20213;-57
2022/01/13 06:43:47;;;;;;;0.10;0.10;;;;;;;-4.59;100.00;100903.72;5051281;28;20237;-57
2022/01/13 06:46:14;;;;;;;0.00;0.00;;;;;;;-4.60;100.00;100899.47;5065100;28;20324;-58
2022/01/13 06:48:43;;;;;;;0.00;0.00;;;;;;;-4.63;100.00;100905.44;5070276;28;20213;-58
2022/01/13 06:51:10;;;;;;;0.00;0.00;;;;;;;-4.63;100.00;100910.53;5069818;28;20369;-57
2022/01/13 06:53:37;;;;;;;0.10;0.10;;;;;;;-4.63;100.00;100904.56;5067068;28;20333;-57
2022/01/13 06:56:05;;;;;;;0.10;0.10;;;;;;;-4.56;100.00;100918.19;5057600;28;20203;-58
2022/01/13 06:58:32;;;;;;;0.00;0.00;;;;;;;-4.60;100.00;100915.63;5073739;28;20531;-58
2022/01/13 07:00:59;;;;;;;0.10;0.10;;;;;;;-4.64;100.00;100928.34;5070366;28;20242;-58
2022/01/13 07:03:25;;;;;;;0.00;0.00;;;;;;;-4.66;100.00;100927.50;5069016;28;20236;-58
2022/01/13 07:05:53;;;;;;;0.00;0.00;;;;;;;-4.70;100.00;100933.44;5067330;28;20272;-57
2022/01/13 07:08:20;;;;;;;0.00;0.00;;;;;;;-4.70;100.00;100933.44;5065366;28;20216;-58
2022/01/13 07:10:47;;;;;;;0.00;0.00;;;;;;;-4.67;100.00;100928.34;5069599;28;20335;-58
2022/01/13 07:13:14;;;;;;;0.00;0.00;;;;;;;-4.62;100.00;100949.59;5070642;28;20552;-58
2022/01/13 07:15:44;;;;;;;0.00;0.00;;;;;;;-4.61;100.00;100941.97;5069188;28;20601;-58
2022/01/13 07:18:11;;;;;;;0.10;0.10;;;;;;;-4.63;100.00;100940.25;5070350;28;20311;-58
2022/01/13 07:20:40;;;;;;;0.10;0.10;;;;;;;-4.60;100.00;100951.31;5070083;28;20300;-58
2022/01/13 07:23:08;;;;;;;0.10;0.10;;;;;;;-4.50;100.00;100946.22;5070532;28;20216;-58
2022/01/13 07:25:34;;;;;;;0.10;0.10;;;;;;;-4.50;100.00;100948.78;5069224;28;20208;-57
2022/01/13 07:28:01;;;;;;;0.00;0.00;;;;;;;-4.56;100.00;100947.06;5070238;28;20278;-58
2022/01/13 07:30:28;;;;;;;0.00;0.00;;;;;;;-4.58;100.00;100950.47;5070194;28;20205;-58
2022/01/13 07:32:55;;;;;;;0.00;0.00;;;;;;;-4.62;100.00;100950.44;5070116;28;20292;-56
2022/01/13 07:35:22;;;;;;;0.00;0.00;;;;;;;-4.51;100.00;100952.19;5069166;28;20217;-58
2022/01/13 07:37:49;;;;;;;0.00;0.00;;;;;;;-4.50;100.00;100951.31;5069806;28;20217;-58
2022/01/13 07:40:17;;;;;;;0.00;0.00;;;;;;;-4.50;100.00;100966.63;5052931;28;20206;-58
2022/01/13 07:42:46;;;;;;;0.10;0.10;;;;;;;-4.43;100.00;100962.38;5050386;28;20287;-57
2022/01/13 07:45:15;;;;;;;0.10;0.10;;;;;;;-4.42;100.00;100957.28;5043208;28;20227;-57
2022/01/13 07:47:42;;;;;;;0.00;0.00;;;;;;;-4.34;100.00;100954.72;5072410;28;20235;-56
2022/01/13 07:50:11;;;;;;;0.00;0.00;;;;;;;-4.28;100.00;100956.47;5068837;28;20283;-57
2022/01/13 07:52:38;;;;;;;0.10;0.10;;;;;;;-4.25;100.00;100957.28;5058760;28;20214;-56
2022/01/13 07:55:05;;;;;;;0.10;0.10;;;;;;;-4.21;100.00;100947.94;5057489;28;20214;-56
2022/01/13 07:57:33;;;;;;;0.00;0.00;;;;;;;-4.10;100.00;100935.19;5063716;28;20315;-56
2022/01/13 08:00:00;;;;;;;0.00;0.00;;;;;;;-4.04;100.00;100946.22;5067793;28;20216;-56
2022/01/13 08:02:27;;;;;;;0.00;0.00;;;;;;;-3.99;100.00;100936.03;5070622;28;20220;-56
2022/01/13 08:04:53;;;;;;;0.00;0.00;;;;;;;-3.94;100.00;100944.53;5072478;28;20219;-56
2022/01/13 08:07:20;;;;;;;0.00;0.00;;;;;;;-3.94;100.00;100936.03;5074037;28;20208;-56
2022/01/13 08:09:47;;;;;;;0.00;0.00;;;;;;;-3.90;100.00;100933.47;5073386;28;20316;-56
2022/01/13 08:12:13;;;;;;;0.00;0.00;;;;;;;-3.85;100.00;100936.03;5073250;28;20207;-57
2022/01/13 08:14:41;;;;;;;0.10;0.10;;;;;;;-3.87;100.00;100938.59;5071044;28;20214;-56
2022/01/13 08:17:18;;;;;;;0.10;0.10;;;;;;;-3.87;100.00;100938.59;5054644;28;20217;-52
2022/01/13 08:19:46;;;;;;;0.00;0.00;;;;;;;-3.78;100.00;100944.53;5073616;28;20608;-55
2022/01/13 08:22:13;;;;;;;0.03;0.03;;;;;;;-3.79;100.00;100948.78;5073100;28;20770;-54
2022/01/13 08:24:40;;;;;;;0.10;0.10;;;;;;;-3.77;100.00;100952.16;5072581;28;20202;-56
2022/01/13 08:27:07;;;;;;;0.00;0.00;;;;;;;-3.71;100.00;100948.78;5073423;28;20292;-56
2022/01/13 08:29:34;;;;;;;0.00;0.00;;;;;;;-3.66;100.00;100953.84;5072893;28;20298;-57
2022/01/13 08:32:02;;;;;;;0.00;0.00;;;;;;;-3.63;100.00;100961.50;5072835;28;20315;-56
2022/01/13 08:34:29;;;;;;;0.00;0.00;;;;;;;-3.63;100.00;100966.63;5072557;28;20205;-56
2022/01/13 08:36:55;;;;;;;0.00;0.00;;;;;;;-3.61;100.00;100963.19;5072386;28;20318;-56
2022/01/13 08:39:22;;;;;;;0.00;0.00;;;;;;;-3.58;100.00;100960.63;5073074;28;20293;-56
2022/01/13 08:41:50;;;;;;;0.00;0.00;;;;;;;-3.58;100.00;100962.34;5072903;28;20300;-57
2022/01/13 08:44:17;;;;;;;0.00;0.00;;;;;;;-3.55;100.00;100952.13;5068400;28;20211;-56
2022/01/13 08:46:44;;;;;;;0.00;0.00;;;;;;;-3.56;99.32;100953.81;5069630;28;20292;-56
2022/01/13 08:49:12;;;;;;;0.10;0.10;;;;;;;-3.60;98.79;100957.22;5072340;28;20305;-56
2022/01/13 08:51:39;;;;;;;0.00;0.00;;;;;;;-3.53;99.29;100958.09;5068660;28;20262;-57
2022/01/13 08:54:06;;;;;;;0.00;0.00;;;;;;;-3.48;99.18;100958.94;5072463;28;20206;-55
2022/01/13 08:56:32;;;;;;;0.00;0.00;;;;;;;-3.47;98.56;100952.97;5061956;28;20205;-55
2022/01/13 08:58:59;;;;;;;0.00;0.00;;;;;;;-3.43;98.54;100948.69;5065656;28;20287;-56
2022/01/13 09:01:26;;;;;;;0.10;0.10;;;;;;;-3.36;98.76;100944.44;5072662;28;20299;-56
2022/01/13 09:03:52;;;;;;;0.00;0.00;;;;;;;-3.27;98.89;100944.41;5072410;28;20195;-58
2022/01/13 09:06:20;;;;;;;0.00;0.00;;;;;;;-3.16;98.65;100936.69;5072612;28;20307;-59
2022/01/13 09:08:48;;;;;;;0.00;0.00;;;;;;;-3.13;98.09;100940.06;5068996;28;20221;-59
2022/01/13 09:11:14;;;;;;;0.00;0.00;;;;;;;-3.02;97.75;100936.63;5072272;28;20226;-55
2022/01/13 09:13:41;;;;;;;0.00;0.00;;;;;;;-2.99;97.83;100939.16;5071255;28;20291;-56
2022/01/13 09:16:14;;;;;;;0.00;0.00;;;;;;;-2.47;100.00;100938.00;5084227;28;20299;-52
2022/01/13 09:19:07;;;;;;;0.00;0.00;;;;;;;-2.32;100.00;100942.19;5092521;28;20235;-55
2022/01/13 09:21:38;;;;;;;0.00;0.00;;;;;;;-2.36;100.00;100937.94;5065301;28;20249;-58
2022/01/13 09:24:06;;;;;;;0.00;0.00;;;;;;;-2.40;100.00;100933.72;5041149;28;20205;-59
2022/01/13 09:26:33;;;;;;;0.00;0.00;;;;;;;-2.31;100.00;100938.75;5058751;28;20676;-56
2022/01/13 09:28:59;;;;;;;0.00;0.00;;;;;;;-2.25;100.00;100935.28;5059419;28;20214;-57
2022/01/13 09:31:27;;;;;;;0.00;0.00;;;;;;;-2.16;99.16;100932.66;5062946;28;20284;-59
2022/01/13 09:33:54;;;;;;;0.00;0.00;;;;;;;-2.04;98.13;100925.75;5065035;28;20216;-58
2022/01/13 09:36:21;;;;;;;0.00;0.00;;;;;;;-1.97;97.25;100923.09;5071867;28;20296;-59
2022/01/13 09:38:49;;;;;;;0.00;0.00;;;;;;;-1.91;95.67;100929.88;5072073;28;20216;-58
2022/01/13 09:41:17;;;;;;;0.00;0.00;;;;;;;-1.87;94.56;100930.69;5072737;28;20288;-58
2022/01/13 09:43:46;;;;;;;0.00;0.00;;;;;;;-1.79;94.96;100929.78;5072257;28;20295;-58
2022/01/13 09:46:12;;;;;;;0.00;0.00;;;;;;;-1.69;95.12;100933.06;5071415;28;20231;-56
2022/01/13 09:48:40;;;;;;;0.00;0.00;;;;;;;-1.60;94.48;100937.28;5068110;28;20676;-58
2022/01/13 09:51:07;;;;;;;0.00;0.00;;;;;;;-1.49;94.26;100940.53;5051584;28;20286;-57
2022/01/13 09:53:34;;;;;;;0.00;0.00;;;;;;;-1.32;93.86;100938.69;5051835;28;20536;-57
2022/01/13 09:56:04;;;;;;;0.00;0.00;;;;;;;-1.25;91.26;100940.31;5051799;28;20231;-59
2022/01/13 09:58:31;;;;;;;0.00;0.00;;;;;;;-1.29;91.00;100944.59;5058774;28;20257;-59
2022/01/13 10:00:59;;;;;;;0.00;0.00;;;;;;;-1.21;91.02;100944.53;5070011;28;20202;-58
2022/01/13 10:03:27;;;;;;;0.00;0.00;;;;;;;-1.24;91.07;100939.44;5053986;28;20301;-58
2022/01/13 10:05:56;;;;;;;0.00;0.00;;;;;;;-1.21;90.91;100947.91;5071324;28;20237;-58
2022/01/13 10:08:39;;;;;;;0.00;0.00;;;;;;;-1.35;91.14;100944.66;5071847;28;20731;-59
2022/01/13 10:11:26;;;;;;;0.00;0.00;;;;;;;-1.45;92.73;100945.63;5071623;28;20197;-59
2022/01/13 10:14:11;;;;;;;0.00;0.00;;;;;;;-1.38;91.83;100947.25;5071302;28;20219;-57
2022/01/13 10:16:43;;;;;;;0.00;0.00;;;;;;;-1.30;92.75;100949.75;5071579;28;20296;-59
2022/01/13 10:19:26;;;;;;;0.00;0.00;;;;;;;-1.20;91.07;100954.75;5071273;28;20212;-59
2022/01/13 10:21:56;;;;;;;0.00;0.00;;;;;;;-1.24;90.96;100953.09;5067275;28;20534;-57
2022/01/13 10:24:26;;;;;;;0.00;0.00;;;;;;;-1.13;90.87;100955.53;5070576;28;20205;-59
2022/01/13 10:27:06;;;;;;;0.00;0.00;;;;;;;-1.08;91.15;100952.91;5071165;28;20284;-59
2022/01/13 10:29:44;;;;;;;0.00;0.00;;;;;;;-1.02;91.71;100954.53;5071010;28;20247;-58
2022/01/13 10:32:14;;;;;;;0.00;0.00;;;;;;;-0.94;90.16;100952.72;5070033;28;20213;-58
2022/01/13 10:34:42;;;;;;;0.00;0.00;;;;;;;-0.90;90.05;100956.94;5070475;28;20301;-59
2022/01/13 10:37:13;;;;;;;0.00;0.00;;;;;;;-0.89;90.47;100956.06;5052897;28;20216;-58
2022/01/13 10:40:02;;;;;;;0.00;0.00;;;;;;;-0.80;89.82;100950.81;5070940;28;20715;-58
2022/01/13 10:45:29;;;;;;;0.00;0.00;;;;;;;-0.64;88.78;100950.63;5070424;28;20206;-59
2022/01/13 10:47:57;;;;;;;0.00;0.00;;;;;;;-0.64;88.85;100950.63;5070563;28;20205;-59
2022/01/13 10:50:29;;;;;;;0.00;0.00;;;;;;;-0.57;89.20;100947.09;5070353;28;20222;-58
2022/01/13 10:53:02;;;;;;;0.00;0.00;;;;;;;-0.51;88.64;100943.56;5069639;28;20212;-57
2022/01/13 10:55:31;;;;;;;0.00;0.00;;;;;;;-0.51;88.03;100952.13;5070120;28;20217;-56
2022/01/13 10:57:59;;;;;;;0.00;0.00;;;;;;;-0.50;88.15;100943.56;5068783;28;20627;-57
2022/01/13 11:00:28;;;;;;;0.00;0.00;;;;;;;-0.41;88.55;100946.88;5057542;28;20285;-59
2022/01/13 11:03:07;;;;;;;0.00;0.00;;;;;;;-0.39;87.83;100940.00;5070936;28;20198;-59
2022/01/13 11:05:36;;;;;;;0.00;0.00;;;;;;;-0.35;88.54;100939.91;5069945;28;20261;-58
2022/01/13 11:08:07;;;;;;;0.00;0.00;;;;;;;-0.30;88.60;100942.44;5067724;28;20195;-59
2022/01/13 11:10:36;;;;;;;0.00;0.00;;;;;;;-0.20;87.94;100935.41;5067409;28;20316;-57
2022/01/13 11:13:06;;;;;;;0.00;0.00;;;;;;;-0.17;87.77;100943.06;5069769;28;20214;-59
2022/01/13 11:15:34;;;;;;;0.00;0.00;;;;;;;-0.22;87.94;100943.16;5069881;28;20221;-58
2022/01/13 11:18:01;;;;;;;0.00;0.00;;;;;;;-0.13;87.85;100931.03;5070204;28;20268;-59
2022/01/13 11:20:29;;;;;;;0.00;0.00;;;;;;;-0.09;88.17;100928.38;5069632;28;20237;-58
2022/01/13 11:22:58;;;;;;;0.00;0.00;;;;;;;-0.03;88.20;100942.84;5070395;28;20263;-59
2022/01/13 11:25:27;;;;;;;0.00;0.00;;;;;;;-0.05;87.81;100942.88;5070006;28;20221;-59
2022/01/13 11:27:56;;;;;;;0.00;0.00;;;;;;;0.07;87.30;100938.41;5069620;28;20198;-59
2022/01/13 11:30:27;;;;;;;0.00;0.00;;;;;;;0.14;84.83;100933.09;5070218;28;20230;-58
2022/01/13 11:32:53;;;;;;;0.00;0.00;;;;;;;0.20;84.12;100941.59;5070343;28;20285;-59
2022/01/13 11:35:24;;;;;;;0.00;0.00;;;;;;;0.22;83.52;100937.28;5069602;28;20209;-59